sensor_id;sensor_type;location;lat;lon;timestamp;P1;durP1;ratioP1;P2;durP2;ratioP2
29812;SDS011;16707;48.106;11.548;2023-01-26T00:01:47;20.70;;;10.38;;
29812;SDS011;16707;48.106;11.548;2023-01-26T00:04:16;21.00;;;10.25;;
29812;SDS011;16707;48.106;11.548;2023-01-26T00:06:43;17.48;;;9.48;;
29812;SDS011;16707;48.106;11.548;2023-01-26T00:09:13;19.33;;;9.40;;
29812;SDS011;16707;48.106;11.548;2023-01-26T00:11:43;18.20;;;8.52;;
29812;SDS011;16707;48.106;11.548;2023-01-26T00:14:10;20.92;;;9.10;;
29812;SDS011;16707;48.106;11.548;2023-01-26T00:16:37;15.52;;;8.80;;
29812;SDS011;16707;48.106;11.548;2023-01-26T00:19:04;18.08;;;8.18;;
29812;SDS011;16707;48.106;11.548;2023-01-26T00:21:33;18.80;;;9.13;;
29812;SDS011;16707;48.106;11.548;2023-01-26T00:24:00;20.63;;;9.40;;
29812;SDS011;16707;48.106;11.548;2023-01-26T00:26:28;19.60;;;9.15;;
29812;SDS011;16707;48.106;11.548;2023-01-26T00:28:55;18.65;;;10.20;;
29812;SDS011;16707;48.106;11.548;2023-01-26T00:31:25;17.88;;;9.32;;
29812;SDS011;16707;48.106;11.548;2023-01-26T00:33:53;18.70;;;10.30;;
29812;SDS011;16707;48.106;11.548;2023-01-26T00:36:22;17.67;;;9.07;;
29812;SDS011;16707;48.106;11.548;2023-01-26T00:38:51;20.13;;;9.98;;
29812;SDS011;16707;48.106;11.548;2023-01-26T00:41:26;16.80;;;8.82;;
29812;SDS011;16707;48.106;11.548;2023-01-26T00:44:11;20.13;;;8.95;;
29812;SDS011;16707;48.106;11.548;2023-01-26T00:46:37;16.02;;;8.90;;
29812;SDS011;16707;48.106;11.548;2023-01-26T00:49:04;19.90;;;9.40;;
29812;SDS011;16707;48.106;11.548;2023-01-26T00:51:34;16.45;;;9.20;;
29812;SDS011;16707;48.106;11.548;2023-01-26T00:54:05;21.20;;;10.23;;
29812;SDS011;16707;48.106;11.548;2023-01-26T00:56:32;19.60;;;10.55;;
29812;SDS011;16707;48.106;11.548;2023-01-26T00:58:59;22.25;;;10.15;;
29812;SDS011;16707;48.106;11.548;2023-01-26T01:01:26;18.38;;;9.10;;
29812;SDS011;16707;48.106;11.548;2023-01-26T01:03:53;22.38;;;11.18;;
29812;SDS011;16707;48.106;11.548;2023-01-26T01:06:20;20.05;;;10.65;;
29812;SDS011;16707;48.106;11.548;2023-01-26T01:08:47;20.65;;;10.02;;
29812;SDS011;16707;48.106;11.548;2023-01-26T01:11:15;17.17;;;9.35;;
29812;SDS011;16707;48.106;11.548;2023-01-26T01:13:45;22.08;;;10.27;;
29812;SDS011;16707;48.106;11.548;2023-01-26T01:16:15;21.50;;;10.48;;
29812;SDS011;16707;48.106;11.548;2023-01-26T01:18:45;21.63;;;10.20;;
29812;SDS011;16707;48.106;11.548;2023-01-26T01:21:14;22.50;;;9.07;;
29812;SDS011;16707;48.106;11.548;2023-01-26T01:23:44;18.25;;;9.43;;
29812;SDS011;16707;48.106;11.548;2023-01-26T01:26:11;19.45;;;9.95;;
29812;SDS011;16707;48.106;11.548;2023-01-26T01:28:47;17.45;;;8.70;;
29812;SDS011;16707;48.106;11.548;2023-01-26T01:31:23;17.63;;;8.57;;
29812;SDS011;16707;48.106;11.548;2023-01-26T01:33:53;18.38;;;7.88;;
29812;SDS011;16707;48.106;11.548;2023-01-26T01:36:20;17.73;;;8.40;;
29812;SDS011;16707;48.106;11.548;2023-01-26T01:38:47;17.02;;;8.27;;
29812;SDS011;16707;48.106;11.548;2023-01-26T01:41:16;18.15;;;8.63;;
29812;SDS011;16707;48.106;11.548;2023-01-26T01:43:45;15.20;;;8.40;;
29812;SDS011;16707;48.106;11.548;2023-01-26T01:46:15;15.95;;;7.97;;
29812;SDS011;16707;48.106;11.548;2023-01-26T01:48:52;14.25;;;7.63;;
29812;SDS011;16707;48.106;11.548;2023-01-26T01:51:26;22.38;;;8.20;;
29812;SDS011;16707;48.106;11.548;2023-01-26T01:54:03;20.65;;;9.57;;
29812;SDS011;16707;48.106;11.548;2023-01-26T01:56:33;19.95;;;9.35;;
29812;SDS011;16707;48.106;11.548;2023-01-26T01:59:04;14.43;;;7.85;;
29812;SDS011;16707;48.106;11.548;2023-01-26T02:01:36;19.23;;;9.00;;
29812;SDS011;16707;48.106;11.548;2023-01-26T02:04:04;21.70;;;9.30;;
29812;SDS011;16707;48.106;11.548;2023-01-26T02:06:51;21.27;;;9.55;;
29812;SDS011;16707;48.106;11.548;2023-01-26T02:09:24;17.95;;;7.95;;
29812;SDS011;16707;48.106;11.548;2023-01-26T02:12:14;19.10;;;9.20;;
29812;SDS011;16707;48.106;11.548;2023-01-26T02:14:45;17.23;;;8.20;;
29812;SDS011;16707;48.106;11.548;2023-01-26T02:17:12;19.98;;;8.45;;
29812;SDS011;16707;48.106;11.548;2023-01-26T02:19:41;20.92;;;9.90;;
29812;SDS011;16707;48.106;11.548;2023-01-26T02:22:20;19.70;;;10.02;;
29812;SDS011;16707;48.106;11.548;2023-01-26T02:24:55;19.48;;;10.45;;
29812;SDS011;16707;48.106;11.548;2023-01-26T02:27:31;19.33;;;9.88;;
29812;SDS011;16707;48.106;11.548;2023-01-26T02:30:01;21.02;;;9.63;;
29812;SDS011;16707;48.106;11.548;2023-01-26T02:32:31;21.88;;;9.60;;
29812;SDS011;16707;48.106;11.548;2023-01-26T02:34:59;18.27;;;9.30;;
29812;SDS011;16707;48.106;11.548;2023-01-26T02:37:32;20.88;;;9.52;;
29812;SDS011;16707;48.106;11.548;2023-01-26T02:40:06;17.00;;;8.57;;
29812;SDS011;16707;48.106;11.548;2023-01-26T02:42:47;18.98;;;9.65;;
29812;SDS011;16707;48.106;11.548;2023-01-26T02:45:15;17.42;;;9.57;;
29812;SDS011;16707;48.106;11.548;2023-01-26T02:47:42;18.52;;;9.57;;
29812;SDS011;16707;48.106;11.548;2023-01-26T02:50:10;19.33;;;9.02;;
29812;SDS011;16707;48.106;11.548;2023-01-26T02:52:39;17.98;;;9.45;;
29812;SDS011;16707;48.106;11.548;2023-01-26T02:55:07;17.88;;;8.48;;
29812;SDS011;16707;48.106;11.548;2023-01-26T02:57:58;18.27;;;8.70;;
29812;SDS011;16707;48.106;11.548;2023-01-26T03:00:27;16.20;;;8.63;;
29812;SDS011;16707;48.106;11.548;2023-01-26T03:02:55;18.00;;;7.90;;
29812;SDS011;16707;48.106;11.548;2023-01-26T03:05:24;17.95;;;8.98;;
29812;SDS011;16707;48.106;11.548;2023-01-26T03:07:53;19.05;;;9.35;;
29812;SDS011;16707;48.106;11.548;2023-01-26T03:10:20;19.92;;;9.30;;
29812;SDS011;16707;48.106;11.548;2023-01-26T03:12:48;19.38;;;9.40;;
29812;SDS011;16707;48.106;11.548;2023-01-26T03:15:24;19.67;;;9.60;;
29812;SDS011;16707;48.106;11.548;2023-01-26T03:18:08;20.00;;;9.85;;
29812;SDS011;16707;48.106;11.548;2023-01-26T03:20:53;23.75;;;10.35;;
29812;SDS011;16707;48.106;11.548;2023-01-26T03:26:27;21.05;;;9.60;;
29812;SDS011;16707;48.106;11.548;2023-01-26T03:29:16;19.63;;;11.35;;
29812;SDS011;16707;48.106;11.548;2023-01-26T03:31:48;23.60;;;9.82;;
29812;SDS011;16707;48.106;11.548;2023-01-26T03:34:23;21.83;;;10.13;;
29812;SDS011;16707;48.106;11.548;2023-01-26T03:36:54;21.42;;;10.85;;
29812;SDS011;16707;48.106;11.548;2023-01-26T03:39:27;21.45;;;10.77;;
29812;SDS011;16707;48.106;11.548;2023-01-26T03:42:15;19.25;;;9.68;;
29812;SDS011;16707;48.106;11.548;2023-01-26T03:45:02;22.73;;;10.77;;
29812;SDS011;16707;48.106;11.548;2023-01-26T03:47:49;21.30;;;11.05;;
29812;SDS011;16707;48.106;11.548;2023-01-26T03:50:34;20.85;;;10.27;;
29812;SDS011;16707;48.106;11.548;2023-01-26T03:53:22;17.40;;;9.50;;
29812;SDS011;16707;48.106;11.548;2023-01-26T03:56:08;16.98;;;7.70;;
29812;SDS011;16707;48.106;11.548;2023-01-26T03:58:45;15.68;;;8.48;;
29812;SDS011;16707;48.106;11.548;2023-01-26T04:01:19;15.05;;;7.03;;
29812;SDS011;16707;48.106;11.548;2023-01-26T04:03:53;15.65;;;7.55;;
29812;SDS011;16707;48.106;11.548;2023-01-26T04:06:40;14.80;;;8.55;;
29812;SDS011;16707;48.106;11.548;2023-01-26T04:09:27;16.27;;;7.82;;
29812;SDS011;16707;48.106;11.548;2023-01-26T04:11:55;14.25;;;7.68;;
29812;SDS011;16707;48.106;11.548;2023-01-26T04:14:30;11.35;;;5.80;;
29812;SDS011;16707;48.106;11.548;2023-01-26T04:20:04;13.15;;;6.68;;
29812;SDS011;16707;48.106;11.548;2023-01-26T04:22:52;11.43;;;6.05;;
29812;SDS011;16707;48.106;11.548;2023-01-26T04:25:20;11.80;;;5.80;;
29812;SDS011;16707;48.106;11.548;2023-01-26T04:27:53;13.68;;;6.28;;
29812;SDS011;16707;48.106;11.548;2023-01-26T04:30:21;12.85;;;5.72;;
29812;SDS011;16707;48.106;11.548;2023-01-26T04:32:52;9.85;;;5.60;;
29812;SDS011;16707;48.106;11.548;2023-01-26T04:35:20;10.57;;;5.78;;
29812;SDS011;16707;48.106;11.548;2023-01-26T04:37:50;11.57;;;6.65;;
29812;SDS011;16707;48.106;11.548;2023-01-26T04:40:23;9.30;;;4.75;;
29812;SDS011;16707;48.106;11.548;2023-01-26T04:42:49;8.85;;;5.18;;
29812;SDS011;16707;48.106;11.548;2023-01-26T04:45:16;13.02;;;5.68;;
29812;SDS011;16707;48.106;11.548;2023-01-26T04:47:43;9.80;;;5.20;;
29812;SDS011;16707;48.106;11.548;2023-01-26T04:50:11;11.43;;;5.35;;
29812;SDS011;16707;48.106;11.548;2023-01-26T04:52:39;14.50;;;6.45;;
29812;SDS011;16707;48.106;11.548;2023-01-26T04:55:15;10.27;;;5.50;;
29812;SDS011;16707;48.106;11.548;2023-01-26T04:57:42;13.30;;;6.18;;
29812;SDS011;16707;48.106;11.548;2023-01-26T05:00:13;11.35;;;5.55;;
29812;SDS011;16707;48.106;11.548;2023-01-26T05:02:42;14.95;;;7.47;;
29812;SDS011;16707;48.106;11.548;2023-01-26T05:05:09;16.63;;;8.02;;
29812;SDS011;16707;48.106;11.548;2023-01-26T05:07:40;15.13;;;7.10;;
29812;SDS011;16707;48.106;11.548;2023-01-26T05:10:08;13.73;;;7.82;;
29812;SDS011;16707;48.106;11.548;2023-01-26T05:12:38;13.02;;;7.63;;
29812;SDS011;16707;48.106;11.548;2023-01-26T05:15:07;11.95;;;7.22;;
29812;SDS011;16707;48.106;11.548;2023-01-26T05:17:34;13.15;;;6.25;;
29812;SDS011;16707;48.106;11.548;2023-01-26T05:20:05;10.40;;;5.95;;
29812;SDS011;16707;48.106;11.548;2023-01-26T05:22:33;12.48;;;5.95;;
29812;SDS011;16707;48.106;11.548;2023-01-26T05:25:01;10.10;;;6.28;;
29812;SDS011;16707;48.106;11.548;2023-01-26T05:27:28;10.25;;;6.50;;
29812;SDS011;16707;48.106;11.548;2023-01-26T05:29:55;11.93;;;5.80;;
29812;SDS011;16707;48.106;11.548;2023-01-26T05:32:24;8.82;;;5.70;;
29812;SDS011;16707;48.106;11.548;2023-01-26T05:34:57;12.10;;;6.18;;
29812;SDS011;16707;48.106;11.548;2023-01-26T05:37:30;12.40;;;5.53;;
29812;SDS011;16707;48.106;11.548;2023-01-26T05:40:02;11.43;;;5.77;;
29812;SDS011;16707;48.106;11.548;2023-01-26T05:42:29;10.32;;;5.30;;
29812;SDS011;16707;48.106;11.548;2023-01-26T05:44:56;10.52;;;5.68;;
29812;SDS011;16707;48.106;11.548;2023-01-26T05:47:28;12.48;;;5.72;;
29812;SDS011;16707;48.106;11.548;2023-01-26T05:49:55;11.60;;;5.47;;
29812;SDS011;16707;48.106;11.548;2023-01-26T05:52:25;10.73;;;5.45;;
29812;SDS011;16707;48.106;11.548;2023-01-26T05:54:52;10.48;;;5.55;;
29812;SDS011;16707;48.106;11.548;2023-01-26T05:57:24;9.95;;;5.50;;
29812;SDS011;16707;48.106;11.548;2023-01-26T05:59:54;9.98;;;5.15;;
29812;SDS011;16707;48.106;11.548;2023-01-26T06:02:21;9.60;;;4.57;;
29812;SDS011;16707;48.106;11.548;2023-01-26T06:04:51;13.52;;;5.95;;
29812;SDS011;16707;48.106;11.548;2023-01-26T06:07:23;10.73;;;5.65;;
29812;SDS011;16707;48.106;11.548;2023-01-26T06:09:51;10.05;;;5.55;;
29812;SDS011;16707;48.106;11.548;2023-01-26T06:12:19;11.52;;;5.28;;
29812;SDS011;16707;48.106;11.548;2023-01-26T06:14:57;10.85;;;5.90;;
29812;SDS011;16707;48.106;11.548;2023-01-26T06:17:24;11.45;;;5.60;;
29812;SDS011;16707;48.106;11.548;2023-01-26T06:19:53;9.68;;;4.88;;
29812;SDS011;16707;48.106;11.548;2023-01-26T06:22:21;9.52;;;5.38;;
29812;SDS011;16707;48.106;11.548;2023-01-26T06:24:48;11.85;;;6.55;;
29812;SDS011;16707;48.106;11.548;2023-01-26T06:27:16;8.20;;;4.43;;
29812;SDS011;16707;48.106;11.548;2023-01-26T06:29:45;8.02;;;4.57;;
29812;SDS011;16707;48.106;11.548;2023-01-26T06:32:13;7.13;;;3.78;;
29812;SDS011;16707;48.106;11.548;2023-01-26T06:34:41;11.35;;;4.53;;
29812;SDS011;16707;48.106;11.548;2023-01-26T06:37:08;7.32;;;3.67;;
29812;SDS011;16707;48.106;11.548;2023-01-26T06:39:35;7.57;;;3.65;;
29812;SDS011;16707;48.106;11.548;2023-01-26T06:42:09;6.57;;;4.13;;
29812;SDS011;16707;48.106;11.548;2023-01-26T06:44:39;7.32;;;4.13;;
29812;SDS011;16707;48.106;11.548;2023-01-26T06:47:09;6.40;;;3.53;;
29812;SDS011;16707;48.106;11.548;2023-01-26T06:49:37;7.07;;;3.65;;
29812;SDS011;16707;48.106;11.548;2023-01-26T06:52:05;5.85;;;3.45;;
29812;SDS011;16707;48.106;11.548;2023-01-26T06:54:51;8.55;;;4.22;;
29812;SDS011;16707;48.106;11.548;2023-01-26T06:57:20;8.07;;;3.78;;
29812;SDS011;16707;48.106;11.548;2023-01-26T06:59:47;7.82;;;3.97;;
29812;SDS011;16707;48.106;11.548;2023-01-26T07:02:15;6.38;;;3.20;;
29812;SDS011;16707;48.106;11.548;2023-01-26T07:04:47;7.05;;;3.63;;
29812;SDS011;16707;48.106;11.548;2023-01-26T07:07:15;6.22;;;3.17;;
29812;SDS011;16707;48.106;11.548;2023-01-26T07:09:42;7.45;;;4.57;;
29812;SDS011;16707;48.106;11.548;2023-01-26T07:12:09;7.72;;;4.00;;
29812;SDS011;16707;48.106;11.548;2023-01-26T07:14:37;7.50;;;3.80;;
29812;SDS011;16707;48.106;11.548;2023-01-26T07:17:04;9.90;;;4.57;;
29812;SDS011;16707;48.106;11.548;2023-01-26T07:19:31;8.80;;;4.13;;
29812;SDS011;16707;48.106;11.548;2023-01-26T07:22:02;6.80;;;3.85;;
29812;SDS011;16707;48.106;11.548;2023-01-26T07:24:29;7.40;;;3.95;;
29812;SDS011;16707;48.106;11.548;2023-01-26T07:26:56;8.02;;;3.83;;
29812;SDS011;16707;48.106;11.548;2023-01-26T07:29:25;7.75;;;3.88;;
29812;SDS011;16707;48.106;11.548;2023-01-26T07:31:52;8.05;;;3.78;;
29812;SDS011;16707;48.106;11.548;2023-01-26T07:34:19;6.72;;;3.88;;
29812;SDS011;16707;48.106;11.548;2023-01-26T07:36:51;9.68;;;4.30;;
29812;SDS011;16707;48.106;11.548;2023-01-26T07:39:20;7.40;;;3.72;;
29812;SDS011;16707;48.106;11.548;2023-01-26T07:41:47;7.70;;;4.38;;
29812;SDS011;16707;48.106;11.548;2023-01-26T07:44:18;7.55;;;4.40;;
29812;SDS011;16707;48.106;11.548;2023-01-26T07:46:45;7.95;;;4.53;;
29812;SDS011;16707;48.106;11.548;2023-01-26T07:49:12;9.07;;;4.70;;
29812;SDS011;16707;48.106;11.548;2023-01-26T07:51:44;8.68;;;4.75;;
29812;SDS011;16707;48.106;11.548;2023-01-26T07:54:11;6.80;;;4.05;;
29812;SDS011;16707;48.106;11.548;2023-01-26T07:56:39;8.65;;;3.88;;
29812;SDS011;16707;48.106;11.548;2023-01-26T07:59:09;8.35;;;4.22;;
29812;SDS011;16707;48.106;11.548;2023-01-26T08:01:36;7.38;;;3.63;;
29812;SDS011;16707;48.106;11.548;2023-01-26T08:04:03;8.48;;;3.88;;
29812;SDS011;16707;48.106;11.548;2023-01-26T08:06:31;8.15;;;4.28;;
29812;SDS011;16707;48.106;11.548;2023-01-26T08:09:00;7.93;;;4.57;;
29812;SDS011;16707;48.106;11.548;2023-01-26T08:11:33;10.60;;;4.13;;
29812;SDS011;16707;48.106;11.548;2023-01-26T08:14:02;7.85;;;4.65;;
29812;SDS011;16707;48.106;11.548;2023-01-26T08:16:29;9.77;;;4.65;;
29812;SDS011;16707;48.106;11.548;2023-01-26T08:18:56;9.82;;;3.78;;
29812;SDS011;16707;48.106;11.548;2023-01-26T08:21:27;8.13;;;4.40;;
29812;SDS011;16707;48.106;11.548;2023-01-26T08:23:54;8.65;;;4.85;;
29812;SDS011;16707;48.106;11.548;2023-01-26T08:26:26;7.85;;;4.20;;
29812;SDS011;16707;48.106;11.548;2023-01-26T08:28:53;6.30;;;3.67;;
29812;SDS011;16707;48.106;11.548;2023-01-26T08:31:22;7.68;;;4.57;;
29812;SDS011;16707;48.106;11.548;2023-01-26T08:33:50;11.07;;;4.25;;
29812;SDS011;16707;48.106;11.548;2023-01-26T08:36:18;9.07;;;4.97;;
29812;SDS011;16707;48.106;11.548;2023-01-26T08:38:45;9.30;;;5.35;;
29812;SDS011;16707;48.106;11.548;2023-01-26T08:41:13;8.02;;;3.83;;
29812;SDS011;16707;48.106;11.548;2023-01-26T08:43:40;7.95;;;4.28;;
29812;SDS011;16707;48.106;11.548;2023-01-26T08:46:07;9.00;;;3.95;;
29812;SDS011;16707;48.106;11.548;2023-01-26T08:48:35;9.15;;;5.05;;
29812;SDS011;16707;48.106;11.548;2023-01-26T08:51:03;9.48;;;4.30;;
29812;SDS011;16707;48.106;11.548;2023-01-26T08:53:34;7.45;;;4.20;;
29812;SDS011;16707;48.106;11.548;2023-01-26T08:56:02;9.27;;;5.15;;
29812;SDS011;16707;48.106;11.548;2023-01-26T08:58:30;11.00;;;4.80;;
29812;SDS011;16707;48.106;11.548;2023-01-26T09:01:03;7.40;;;4.40;;
29812;SDS011;16707;48.106;11.548;2023-01-26T09:03:30;9.48;;;5.15;;
29812;SDS011;16707;48.106;11.548;2023-01-26T09:05:59;8.45;;;3.88;;
29812;SDS011;16707;48.106;11.548;2023-01-26T09:08:26;9.75;;;4.45;;
29812;SDS011;16707;48.106;11.548;2023-01-26T09:10:54;7.55;;;4.88;;
29812;SDS011;16707;48.106;11.548;2023-01-26T09:13:21;9.10;;;4.68;;
29812;SDS011;16707;48.106;11.548;2023-01-26T09:15:48;10.23;;;5.43;;
29812;SDS011;16707;48.106;11.548;2023-01-26T09:18:15;8.50;;;4.32;;
29812;SDS011;16707;48.106;11.548;2023-01-26T09:20:42;9.25;;;4.57;;
29812;SDS011;16707;48.106;11.548;2023-01-26T09:23:12;9.55;;;5.18;;
29812;SDS011;16707;48.106;11.548;2023-01-26T09:25:41;9.00;;;5.45;;
29812;SDS011;16707;48.106;11.548;2023-01-26T09:28:08;7.75;;;4.40;;
29812;SDS011;16707;48.106;11.548;2023-01-26T09:30:35;10.93;;;5.38;;
29812;SDS011;16707;48.106;11.548;2023-01-26T09:33:03;9.40;;;5.40;;
29812;SDS011;16707;48.106;11.548;2023-01-26T09:35:31;8.65;;;5.10;;
29812;SDS011;16707;48.106;11.548;2023-01-26T09:37:58;9.40;;;5.40;;
29812;SDS011;16707;48.106;11.548;2023-01-26T09:40:28;9.23;;;5.50;;
29812;SDS011;16707;48.106;11.548;2023-01-26T09:43:06;12.68;;;5.95;;
29812;SDS011;16707;48.106;11.548;2023-01-26T09:45:57;9.65;;;5.57;;
29812;SDS011;16707;48.106;11.548;2023-01-26T09:48:33;9.02;;;5.65;;
29812;SDS011;16707;48.106;11.548;2023-01-26T09:51:06;13.70;;;6.55;;
29812;SDS011;16707;48.106;11.548;2023-01-26T09:53:42;13.80;;;6.30;;
29812;SDS011;16707;48.106;11.548;2023-01-26T09:56:18;12.32;;;6.43;;
29812;SDS011;16707;48.106;11.548;2023-01-26T09:58:48;13.27;;;6.82;;
29812;SDS011;16707;48.106;11.548;2023-01-26T10:03:55;10.55;;;6.18;;
29812;SDS011;16707;48.106;11.548;2023-01-26T10:06:28;13.18;;;6.82;;
29812;SDS011;16707;48.106;11.548;2023-01-26T10:08:56;11.70;;;5.95;;
29812;SDS011;16707;48.106;11.548;2023-01-26T10:11:29;15.70;;;8.15;;
29812;SDS011;16707;48.106;11.548;2023-01-26T10:14:03;14.65;;;7.88;;
29812;SDS011;16707;48.106;11.548;2023-01-26T10:16:37;19.20;;;9.40;;
29812;SDS011;16707;48.106;11.548;2023-01-26T10:19:08;18.45;;;9.90;;
29812;SDS011;16707;48.106;11.548;2023-01-26T10:21:40;16.90;;;10.93;;
29812;SDS011;16707;48.106;11.548;2023-01-26T10:24:12;20.98;;;10.57;;
29812;SDS011;16707;48.106;11.548;2023-01-26T10:26:43;22.58;;;10.75;;
29812;SDS011;16707;48.106;11.548;2023-01-26T10:29:12;21.55;;;10.13;;
29812;SDS011;16707;48.106;11.548;2023-01-26T10:31:42;19.92;;;10.52;;
29812;SDS011;16707;48.106;11.548;2023-01-26T10:34:12;18.88;;;9.73;;
29812;SDS011;16707;48.106;11.548;2023-01-26T10:36:46;23.05;;;10.50;;
29812;SDS011;16707;48.106;11.548;2023-01-26T10:39:14;19.70;;;10.32;;
29812;SDS011;16707;48.106;11.548;2023-01-26T10:41:56;21.02;;;9.95;;
29812;SDS011;16707;48.106;11.548;2023-01-26T10:44:28;22.77;;;10.75;;
29812;SDS011;16707;48.106;11.548;2023-01-26T10:47:02;21.60;;;11.05;;
29812;SDS011;16707;48.106;11.548;2023-01-26T10:49:38;23.15;;;11.05;;
29812;SDS011;16707;48.106;11.548;2023-01-26T10:52:14;23.05;;;11.00;;
29812;SDS011;16707;48.106;11.548;2023-01-26T10:54:42;20.10;;;10.98;;
29812;SDS011;16707;48.106;11.548;2023-01-26T10:57:16;26.00;;;11.85;;
29812;SDS011;16707;48.106;11.548;2023-01-26T10:59:49;19.90;;;11.02;;
29812;SDS011;16707;48.106;11.548;2023-01-26T11:02:24;22.27;;;11.77;;
29812;SDS011;16707;48.106;11.548;2023-01-26T11:07:49;19.17;;;10.02;;
29812;SDS011;16707;48.106;11.548;2023-01-26T11:10:23;22.20;;;10.63;;
29812;SDS011;16707;48.106;11.548;2023-01-26T11:15:59;20.55;;;9.70;;
29812;SDS011;16707;48.106;11.548;2023-01-26T11:18:39;19.27;;;9.57;;
29812;SDS011;16707;48.106;11.548;2023-01-26T11:21:12;18.35;;;10.13;;
29812;SDS011;16707;48.106;11.548;2023-01-26T11:23:48;18.27;;;9.37;;
29812;SDS011;16707;48.106;11.548;2023-01-26T11:32:09;17.92;;;9.32;;
29812;SDS011;16707;48.106;11.548;2023-01-26T11:34:44;16.38;;;8.23;;
29812;SDS011;16707;48.106;11.548;2023-01-26T11:37:32;18.30;;;8.60;;
29812;SDS011;16707;48.106;11.548;2023-01-26T11:43:11;17.10;;;8.48;;
29812;SDS011;16707;48.106;11.548;2023-01-26T11:46:19;17.63;;;8.27;;
29812;SDS011;16707;48.106;11.548;2023-01-26T11:49:00;15.30;;;8.07;;
29812;SDS011;16707;48.106;11.548;2023-01-26T11:51:43;14.57;;;8.52;;
29812;SDS011;16707;48.106;11.548;2023-01-26T11:54:29;13.13;;;7.47;;
29812;SDS011;16707;48.106;11.548;2023-01-26T11:57:12;13.93;;;7.50;;
29812;SDS011;16707;48.106;11.548;2023-01-26T11:59:47;16.80;;;8.45;;
29812;SDS011;16707;48.106;11.548;2023-01-26T12:02:26;15.57;;;8.05;;
29812;SDS011;16707;48.106;11.548;2023-01-26T12:05:00;16.25;;;7.70;;
29812;SDS011;16707;48.106;11.548;2023-01-26T12:07:38;12.48;;;7.15;;
29812;SDS011;16707;48.106;11.548;2023-01-26T12:10:20;14.57;;;7.25;;
29812;SDS011;16707;48.106;11.548;2023-01-26T12:12:52;12.20;;;7.57;;
29812;SDS011;16707;48.106;11.548;2023-01-26T12:15:23;12.30;;;6.93;;
29812;SDS011;16707;48.106;11.548;2023-01-26T12:17:58;11.85;;;7.10;;
29812;SDS011;16707;48.106;11.548;2023-01-26T12:20:32;13.35;;;7.32;;
29812;SDS011;16707;48.106;11.548;2023-01-26T12:23:04;16.23;;;8.75;;
29812;SDS011;16707;48.106;11.548;2023-01-26T12:25:45;17.67;;;7.38;;
29812;SDS011;16707;48.106;11.548;2023-01-26T12:28:19;12.70;;;7.50;;
29812;SDS011;16707;48.106;11.548;2023-01-26T12:30:51;14.23;;;7.90;;
29812;SDS011;16707;48.106;11.548;2023-01-26T12:33:33;12.65;;;6.63;;
29812;SDS011;16707;48.106;11.548;2023-01-26T12:36:12;15.13;;;7.07;;
29812;SDS011;16707;48.106;11.548;2023-01-26T12:38:57;12.25;;;7.15;;
29812;SDS011;16707;48.106;11.548;2023-01-26T12:41:36;13.57;;;7.60;;
29812;SDS011;16707;48.106;11.548;2023-01-26T12:44:16;14.40;;;7.22;;
29812;SDS011;16707;48.106;11.548;2023-01-26T12:46:55;21.38;;;12.57;;
29812;SDS011;16707;48.106;11.548;2023-01-26T12:49:29;13.77;;;7.05;;
29812;SDS011;16707;48.106;11.548;2023-01-26T12:52:03;13.68;;;6.90;;
29812;SDS011;16707;48.106;11.548;2023-01-26T12:54:39;13.60;;;7.15;;
29812;SDS011;16707;48.106;11.548;2023-01-26T12:57:11;14.77;;;7.13;;
29812;SDS011;16707;48.106;11.548;2023-01-26T12:59:43;12.80;;;7.20;;
29812;SDS011;16707;48.106;11.548;2023-01-26T13:02:18;14.18;;;7.32;;
29812;SDS011;16707;48.106;11.548;2023-01-26T13:04:57;11.27;;;6.45;;
29812;SDS011;16707;48.106;11.548;2023-01-26T13:07:27;13.75;;;7.18;;
29812;SDS011;16707;48.106;11.548;2023-01-26T13:13:28;11.48;;;5.80;;
29812;SDS011;16707;48.106;11.548;2023-01-26T13:19:00;12.20;;;6.45;;
29812;SDS011;16707;48.106;11.548;2023-01-26T13:21:43;9.65;;;5.57;;
29812;SDS011;16707;48.106;11.548;2023-01-26T13:27:26;13.70;;;6.28;;
29812;SDS011;16707;48.106;11.548;2023-01-26T13:30:01;14.13;;;6.85;;
29812;SDS011;16707;48.106;11.548;2023-01-26T13:35:27;15.98;;;7.20;;
29812;SDS011;16707;48.106;11.548;2023-01-26T13:37:58;14.85;;;7.07;;
29812;SDS011;16707;48.106;11.548;2023-01-26T13:40:33;19.38;;;9.55;;
29812;SDS011;16707;48.106;11.548;2023-01-26T13:43:05;14.90;;;7.00;;
29812;SDS011;16707;48.106;11.548;2023-01-26T13:45:39;14.60;;;6.53;;
29812;SDS011;16707;48.106;11.548;2023-01-26T13:48:13;14.45;;;6.72;;
29812;SDS011;16707;48.106;11.548;2023-01-26T13:50:41;14.65;;;7.30;;
29812;SDS011;16707;48.106;11.548;2023-01-26T13:53:27;17.23;;;8.13;;
29812;SDS011;16707;48.106;11.548;2023-01-26T13:55:59;10.18;;;5.43;;
29812;SDS011;16707;48.106;11.548;2023-01-26T13:58:27;16.35;;;6.78;;
29812;SDS011;16707;48.106;11.548;2023-01-26T14:00:58;13.57;;;6.63;;
29812;SDS011;16707;48.106;11.548;2023-01-26T14:03:27;14.52;;;7.53;;
29812;SDS011;16707;48.106;11.548;2023-01-26T14:05:56;14.32;;;6.65;;
29812;SDS011;16707;48.106;11.548;2023-01-26T14:08:27;13.23;;;6.68;;
29812;SDS011;16707;48.106;11.548;2023-01-26T14:10:54;12.02;;;5.55;;
29812;SDS011;16707;48.106;11.548;2023-01-26T14:13:27;12.07;;;6.85;;
29812;SDS011;16707;48.106;11.548;2023-01-26T14:15:59;13.05;;;6.43;;
29812;SDS011;16707;48.106;11.548;2023-01-26T14:18:27;11.30;;;6.63;;
29812;SDS011;16707;48.106;11.548;2023-01-26T14:20:58;17.88;;;7.20;;
29812;SDS011;16707;48.106;11.548;2023-01-26T14:23:31;15.25;;;6.53;;
29812;SDS011;16707;48.106;11.548;2023-01-26T14:26:01;12.68;;;6.72;;
29812;SDS011;16707;48.106;11.548;2023-01-26T14:28:30;11.80;;;6.47;;
29812;SDS011;16707;48.106;11.548;2023-01-26T14:31:00;13.45;;;6.00;;
29812;SDS011;16707;48.106;11.548;2023-01-26T14:33:30;12.40;;;6.05;;
29812;SDS011;16707;48.106;11.548;2023-01-26T14:35:59;15.98;;;7.38;;
29812;SDS011;16707;48.106;11.548;2023-01-26T14:38:28;11.70;;;6.50;;
29812;SDS011;16707;48.106;11.548;2023-01-26T14:41:07;13.77;;;5.95;;
29812;SDS011;16707;48.106;11.548;2023-01-26T14:43:39;12.00;;;5.65;;
29812;SDS011;16707;48.106;11.548;2023-01-26T14:46:08;14.85;;;6.90;;
29812;SDS011;16707;48.106;11.548;2023-01-26T14:48:41;15.45;;;6.43;;
29812;SDS011;16707;48.106;11.548;2023-01-26T14:51:14;13.13;;;6.47;;
29812;SDS011;16707;48.106;11.548;2023-01-26T14:53:49;14.23;;;7.10;;
29812;SDS011;16707;48.106;11.548;2023-01-26T14:56:19;11.10;;;5.85;;
29812;SDS011;16707;48.106;11.548;2023-01-26T14:58:52;10.45;;;6.07;;
29812;SDS011;16707;48.106;11.548;2023-01-26T15:01:20;12.77;;;6.85;;
29812;SDS011;16707;48.106;11.548;2023-01-26T15:03:49;13.93;;;7.38;;
29812;SDS011;16707;48.106;11.548;2023-01-26T15:06:24;15.40;;;6.37;;
29812;SDS011;16707;48.106;11.548;2023-01-26T15:08:58;12.10;;;6.90;;
29812;SDS011;16707;48.106;11.548;2023-01-26T15:11:31;11.88;;;6.95;;
29812;SDS011;16707;48.106;11.548;2023-01-26T15:14:30;10.73;;;6.13;;
29812;SDS011;16707;48.106;11.548;2023-01-26T15:16:59;13.50;;;6.07;;
29812;SDS011;16707;48.106;11.548;2023-01-26T15:19:30;13.40;;;6.60;;
29812;SDS011;16707;48.106;11.548;2023-01-26T15:22:03;10.70;;;5.75;;
29812;SDS011;16707;48.106;11.548;2023-01-26T15:24:31;13.48;;;6.40;;
29812;SDS011;16707;48.106;11.548;2023-01-26T15:27:05;14.30;;;5.88;;